sensor_id;sensor_type;location;lat;lon;timestamp;temperature;humidity
16674;DHT22;8450;52.654;10.326;2023-11-21T00:01:40;8.20;99.90
16674;DHT22;8450;52.654;10.326;2023-11-21T00:04:05;8.20;99.90
16674;DHT22;8450;52.654;10.326;2023-11-21T00:06:33;8.20;99.90
16674;DHT22;8450;52.654;10.326;2023-11-21T00:08:58;8.20;99.90
16674;DHT22;8450;52.654;10.326;2023-11-21T00:11:24;8.20;99.90
16674;DHT22;8450;52.654;10.326;2023-11-21T00:13:50;8.10;99.90
16674;DHT22;8450;52.654;10.326;2023-11-21T00:16:16;8.10;99.90
16674;DHT22;8450;52.654;10.326;2023-11-21T00:18:41;8.10;99.90
16674;DHT22;8450;52.654;10.326;2023-11-21T00:21:08;8.10;99.90
16674;DHT22;8450;52.654;10.326;2023-11-21T00:23:36;8.10;99.90
16674;DHT22;8450;52.654;10.326;2023-11-21T00:26:01;8.10;99.90
16674;DHT22;8450;52.654;10.326;2023-11-21T00:28:27;8.10;99.90
16674;DHT22;8450;52.654;10.326;2023-11-21T00:30:53;8.20;99.90
16674;DHT22;8450;52.654;10.326;2023-11-21T00:33:19;8.10;99.90
16674;DHT22;8450;52.654;10.326;2023-11-21T00:35:45;8.20;99.90
16674;DHT22;8450;52.654;10.326;2023-11-21T00:38:10;8.10;99.90
16674;DHT22;8450;52.654;10.326;2023-11-21T00:40:36;8.10;99.90
16674;DHT22;8450;52.654;10.326;2023-11-21T00:43:01;8.10;99.90
16674;DHT22;8450;52.654;10.326;2023-11-21T00:45:27;8.10;99.90
16674;DHT22;8450;52.654;10.326;2023-11-21T00:47:52;8.10;99.90
16674;DHT22;8450;52.654;10.326;2023-11-21T00:50:18;8.10;99.90
16674;DHT22;8450;52.654;10.326;2023-11-21T00:52:44;8.00;99.90
16674;DHT22;8450;52.654;10.326;2023-11-21T00:55:10;8.10;99.90
16674;DHT22;8450;52.654;10.326;2023-11-21T00:57:37;8.10;99.90
16674;DHT22;8450;52.654;10.326;2023-11-21T01:00:03;8.10;99.90
16674;DHT22;8450;52.654;10.326;2023-11-21T01:02:33;8.10;99.90
16674;DHT22;8450;52.654;10.326;2023-11-21T01:05:01;8.10;99.90
16674;DHT22;8450;52.654;10.326;2023-11-21T01:07:26;8.20;99.90
16674;DHT22;8450;52.654;10.326;2023-11-21T01:09:52;8.10;99.90
16674;DHT22;8450;52.654;10.326;2023-11-21T01:12:18;8.10;99.90
16674;DHT22;8450;52.654;10.326;2023-11-21T01:14:44;8.10;99.90
16674;DHT22;8450;52.654;10.326;2023-11-21T01:17:11;8.10;99.90
16674;DHT22;8450;52.654;10.326;2023-11-21T01:19:37;8.10;99.90
16674;DHT22;8450;52.654;10.326;2023-11-21T01:22:02;8.10;99.90
16674;DHT22;8450;52.654;10.326;2023-11-21T01:24:29;8.10;99.90
16674;DHT22;8450;52.654;10.326;2023-11-21T01:26:55;8.10;99.90
16674;DHT22;8450;52.654;10.326;2023-11-21T01:29:20;8.10;99.90
16674;DHT22;8450;52.654;10.326;2023-11-21T01:31:46;8.10;99.90
16674;DHT22;8450;52.654;10.326;2023-11-21T01:34:12;8.10;99.90
16674;DHT22;8450;52.654;10.326;2023-11-21T01:36:38;8.10;99.90
16674;DHT22;8450;52.654;10.326;2023-11-21T01:39:04;8.00;99.90
16674;DHT22;8450;52.654;10.326;2023-11-21T01:41:34;8.00;99.90
16674;DHT22;8450;52.654;10.326;2023-11-21T01:44:01;8.00;99.90
16674;DHT22;8450;52.654;10.326;2023-11-21T01:46:27;8.10;99.90
16674;DHT22;8450;52.654;10.326;2023-11-21T01:48:54;8.20;99.90
16674;DHT22;8450;52.654;10.326;2023-11-21T01:51:20;8.10;99.90
16674;DHT22;8450;52.654;10.326;2023-11-21T01:53:46;8.10;99.90
16674;DHT22;8450;52.654;10.326;2023-11-21T01:56:12;8.10;99.90
16674;DHT22;8450;52.654;10.326;2023-11-21T01:58:39;8.00;99.90
16674;DHT22;8450;52.654;10.326;2023-11-21T02:01:05;8.10;99.90
16674;DHT22;8450;52.654;10.326;2023-11-21T02:03:30;8.10;99.90
16674;DHT22;8450;52.654;10.326;2023-11-21T02:05:56;8.10;99.90
16674;DHT22;8450;52.654;10.326;2023-11-21T02:08:22;8.10;99.90
16674;DHT22;8450;52.654;10.326;2023-11-21T02:10:47;8.10;99.90
16674;DHT22;8450;52.654;10.326;2023-11-21T02:13:13;8.10;99.90
16674;DHT22;8450;52.654;10.326;2023-11-21T02:15:39;8.10;99.90
16674;DHT22;8450;52.654;10.326;2023-11-21T02:18:05;8.20;99.90
16674;DHT22;8450;52.654;10.326;2023-11-21T02:20:32;8.20;99.90
16674;DHT22;8450;52.654;10.326;2023-11-21T02:23:00;8.20;99.90
16674;DHT22;8450;52.654;10.326;2023-11-21T02:25:31;8.10;99.90
16674;DHT22;8450;52.654;10.326;2023-11-21T02:28:02;8.10;99.90
16674;DHT22;8450;52.654;10.326;2023-11-21T02:30:29;8.10;99.90
16674;DHT22;8450;52.654;10.326;2023-11-21T02:32:57;8.10;99.90
16674;DHT22;8450;52.654;10.326;2023-11-21T02:35:24;8.10;99.90
16674;DHT22;8450;52.654;10.326;2023-11-21T02:37:52;8.10;99.90
16674;DHT22;8450;52.654;10.326;2023-11-21T02:40:17;8.10;99.90
16674;DHT22;8450;52.654;10.326;2023-11-21T02:42:44;8.10;99.90
16674;DHT22;8450;52.654;10.326;2023-11-21T02:45:10;8.10;99.90
16674;DHT22;8450;52.654;10.326;2023-11-21T02:47:39;8.10;99.90
16674;DHT22;8450;52.654;10.326;2023-11-21T02:50:05;8.10;99.90
16674;DHT22;8450;52.654;10.326;2023-11-21T02:52:33;8.10;99.90
16674;DHT22;8450;52.654;10.326;2023-11-21T02:54:59;8.20;99.90
16674;DHT22;8450;52.654;10.326;2023-11-21T02:57:25;8.10;99.90
16674;DHT22;8450;52.654;10.326;2023-11-21T02:59:50;8.20;99.90
16674;DHT22;8450;52.654;10.326;2023-11-21T03:02:16;8.20;99.90
16674;DHT22;8450;52.654;10.326;2023-11-21T03:04:41;8.20;99.90
16674;DHT22;8450;52.654;10.326;2023-11-21T03:07:08;8.20;99.90
16674;DHT22;8450;52.654;10.326;2023-11-21T03:09:35;8.20;99.90
16674;DHT22;8450;52.654;10.326;2023-11-21T03:12:01;8.20;99.90
16674;DHT22;8450;52.654;10.326;2023-11-21T03:14:27;8.30;99.90
16674;DHT22;8450;52.654;10.326;2023-11-21T03:16:53;8.20;99.90
16674;DHT22;8450;52.654;10.326;2023-11-21T03:19:18;8.20;99.90
16674;DHT22;8450;52.654;10.326;2023-11-21T03:21:44;8.20;99.90
16674;DHT22;8450;52.654;10.326;2023-11-21T03:24:09;8.10;99.90
16674;DHT22;8450;52.654;10.326;2023-11-21T03:26:35;8.20;99.90
16674;DHT22;8450;52.654;10.326;2023-11-21T03:29:00;8.20;99.90
16674;DHT22;8450;52.654;10.326;2023-11-21T03:31:26;8.10;99.90
16674;DHT22;8450;52.654;10.326;2023-11-21T03:33:52;8.20;99.90
16674;DHT22;8450;52.654;10.326;2023-11-21T03:36:19;8.20;99.90
16674;DHT22;8450;52.654;10.326;2023-11-21T03:38:45;8.30;99.90
16674;DHT22;8450;52.654;10.326;2023-11-21T03:41:10;8.30;99.90
16674;DHT22;8450;52.654;10.326;2023-11-21T03:43:37;8.30;99.90
16674;DHT22;8450;52.654;10.326;2023-11-21T03:46:03;8.20;99.90
16674;DHT22;8450;52.654;10.326;2023-11-21T03:48:29;8.20;99.90
16674;DHT22;8450;52.654;10.326;2023-11-21T03:50:55;8.20;99.90
16674;DHT22;8450;52.654;10.326;2023-11-21T03:53:20;8.20;99.90
16674;DHT22;8450;52.654;10.326;2023-11-21T03:55:46;8.30;99.90
16674;DHT22;8450;52.654;10.326;2023-11-21T03:58:11;8.20;99.90
16674;DHT22;8450;52.654;10.326;2023-11-21T04:00:37;8.20;99.90
16674;DHT22;8450;52.654;10.326;2023-11-21T04:03:03;8.20;99.90
16674;DHT22;8450;52.654;10.326;2023-11-21T04:05:29;8.10;99.90
16674;DHT22;8450;52.654;10.326;2023-11-21T04:07:54;8.10;99.90
16674;DHT22;8450;52.654;10.326;2023-11-21T04:10:20;8.10;99.90
16674;DHT22;8450;52.654;10.326;2023-11-21T04:12:45;8.00;99.90
16674;DHT22;8450;52.654;10.326;2023-11-21T04:15:11;8.00;99.90
16674;DHT22;8450;52.654;10.326;2023-11-21T04:17:38;8.00;99.90
16674;DHT22;8450;52.654;10.326;2023-11-21T04:20:05;7.90;99.90
16674;DHT22;8450;52.654;10.326;2023-11-21T04:22:38;7.90;99.90
16674;DHT22;8450;52.654;10.326;2023-11-21T04:25:15;7.80;99.90
16674;DHT22;8450;52.654;10.326;2023-11-21T04:27:41;7.80;99.90
16674;DHT22;8450;52.654;10.326;2023-11-21T04:30:11;7.80;99.90
16674;DHT22;8450;52.654;10.326;2023-11-21T04:32:37;7.70;99.90
16674;DHT22;8450;52.654;10.326;2023-11-21T04:35:03;7.70;99.90
16674;DHT22;8450;52.654;10.326;2023-11-21T04:37:29;7.70;99.90
16674;DHT22;8450;52.654;10.326;2023-11-21T04:39:55;7.60;99.90
16674;DHT22;8450;52.654;10.326;2023-11-21T04:42:20;7.60;99.90
16674;DHT22;8450;52.654;10.326;2023-11-21T04:44:46;7.50;99.90
16674;DHT22;8450;52.654;10.326;2023-11-21T04:47:11;7.50;99.90
16674;DHT22;8450;52.654;10.326;2023-11-21T04:49:37;7.50;99.90
16674;DHT22;8450;52.654;10.326;2023-11-21T04:52:03;7.50;99.90
16674;DHT22;8450;52.654;10.326;2023-11-21T04:54:30;7.50;99.90
16674;DHT22;8450;52.654;10.326;2023-11-21T04:56:56;7.40;99.90
16674;DHT22;8450;52.654;10.326;2023-11-21T04:59:22;7.40;99.90
16674;DHT22;8450;52.654;10.326;2023-11-21T05:01:50;7.30;99.90
16674;DHT22;8450;52.654;10.326;2023-11-21T05:04:16;7.30;99.90
16674;DHT22;8450;52.654;10.326;2023-11-21T05:06:41;7.30;99.90
16674;DHT22;8450;52.654;10.326;2023-11-21T05:09:07;7.30;99.90
16674;DHT22;8450;52.654;10.326;2023-11-21T05:11:37;7.20;99.90
16674;DHT22;8450;52.654;10.326;2023-11-21T05:14:03;7.20;99.90
16674;DHT22;8450;52.654;10.326;2023-11-21T05:16:30;7.20;99.90
16674;DHT22;8450;52.654;10.326;2023-11-21T05:18:56;7.20;99.90
16674;DHT22;8450;52.654;10.326;2023-11-21T05:21:26;7.20;99.90
16674;DHT22;8450;52.654;10.326;2023-11-21T05:23:52;7.20;99.90
16674;DHT22;8450;52.654;10.326;2023-11-21T05:26:17;7.20;99.90
16674;DHT22;8450;52.654;10.326;2023-11-21T05:28:43;7.10;99.90
16674;DHT22;8450;52.654;10.326;2023-11-21T05:31:09;7.10;99.90
16674;DHT22;8450;52.654;10.326;2023-11-21T05:33:36;7.00;99.90
16674;DHT22;8450;52.654;10.326;2023-11-21T05:36:02;6.80;99.90
16674;DHT22;8450;52.654;10.326;2023-11-21T05:38:27;6.80;99.90
16674;DHT22;8450;52.654;10.326;2023-11-21T05:40:53;6.80;99.90
16674;DHT22;8450;52.654;10.326;2023-11-21T05:43:18;6.80;99.90
16674;DHT22;8450;52.654;10.326;2023-11-21T05:45:44;6.70;99.90
16674;DHT22;8450;52.654;10.326;2023-11-21T05:48:09;6.80;99.90
16674;DHT22;8450;52.654;10.326;2023-11-21T05:50:35;6.80;99.90
16674;DHT22;8450;52.654;10.326;2023-11-21T05:53:03;6.80;99.90
16674;DHT22;8450;52.654;10.326;2023-11-21T05:55:28;6.70;99.90
16674;DHT22;8450;52.654;10.326;2023-11-21T05:57:54;6.70;99.90
16674;DHT22;8450;52.654;10.326;2023-11-21T06:00:20;6.70;99.90
16674;DHT22;8450;52.654;10.326;2023-11-21T06:02:47;6.70;99.90
16674;DHT22;8450;52.654;10.326;2023-11-21T06:05:17;6.60;99.90
16674;DHT22;8450;52.654;10.326;2023-11-21T06:07:43;6.60;99.90
16674;DHT22;8450;52.654;10.326;2023-11-21T06:10:10;6.60;99.90
16674;DHT22;8450;52.654;10.326;2023-11-21T06:12:37;6.60;99.90
16674;DHT22;8450;52.654;10.326;2023-11-21T06:15:03;6.60;99.90
16674;DHT22;8450;52.654;10.326;2023-11-21T06:17:31;6.70;99.90
16674;DHT22;8450;52.654;10.326;2023-11-21T06:19:57;6.60;99.90
16674;DHT22;8450;52.654;10.326;2023-11-21T06:22:22;6.50;99.90
16674;DHT22;8450;52.654;10.326;2023-11-21T06:24:48;6.50;99.90
16674;DHT22;8450;52.654;10.326;2023-11-21T06:27:13;6.50;99.90
16674;DHT22;8450;52.654;10.326;2023-11-21T06:29:39;6.60;99.90
16674;DHT22;8450;52.654;10.326;2023-11-21T06:32:05;6.60;99.90
16674;DHT22;8450;52.654;10.326;2023-11-21T06:34:31;6.60;99.90
16674;DHT22;8450;52.654;10.326;2023-11-21T06:36:56;6.60;99.90
16674;DHT22;8450;52.654;10.326;2023-11-21T06:39:22;6.60;99.90
16674;DHT22;8450;52.654;10.326;2023-11-21T06:41:51;6.50;99.90
16674;DHT22;8450;52.654;10.326;2023-11-21T06:44:16;6.50;99.90
16674;DHT22;8450;52.654;10.326;2023-11-21T06:46:42;6.50;99.90
16674;DHT22;8450;52.654;10.326;2023-11-21T06:49:08;6.40;99.90
16674;DHT22;8450;52.654;10.326;2023-11-21T06:51:34;6.40;99.90
16674;DHT22;8450;52.654;10.326;2023-11-21T06:53:59;6.40;99.90
16674;DHT22;8450;52.654;10.326;2023-11-21T06:56:25;6.50;99.90
16674;DHT22;8450;52.654;10.326;2023-11-21T06:58:51;6.50;99.90
16674;DHT22;8450;52.654;10.326;2023-11-21T07:01:19;6.40;99.90
16674;DHT22;8450;52.654;10.326;2023-11-21T07:03:45;6.40;99.90
16674;DHT22;8450;52.654;10.326;2023-11-21T07:06:11;6.40;99.90
16674;DHT22;8450;52.654;10.326;2023-11-21T07:08:37;6.40;99.90
16674;DHT22;8450;52.654;10.326;2023-11-21T07:11:03;6.40;99.90
16674;DHT22;8450;52.654;10.326;2023-11-21T07:13:30;6.40;99.90
16674;DHT22;8450;52.654;10.326;2023-11-21T07:15:56;6.40;99.90
16674;DHT22;8450;52.654;10.326;2023-11-21T07:18:21;6.30;99.90
16674;DHT22;8450;52.654;10.326;2023-11-21T07:20:47;6.40;99.90
16674;DHT22;8450;52.654;10.326;2023-11-21T07:23:12;6.40;99.90
16674;DHT22;8450;52.654;10.326;2023-11-21T07:25:38;6.40;99.90
16674;DHT22;8450;52.654;10.326;2023-11-21T07:28:04;6.30;99.90
16674;DHT22;8450;52.654;10.326;2023-11-21T07:30:30;6.30;99.90
16674;DHT22;8450;52.654;10.326;2023-11-21T07:32:56;6.30;99.90
16674;DHT22;8450;52.654;10.326;2023-11-21T07:35:22;6.40;99.90
16674;DHT22;8450;52.654;10.326;2023-11-21T07:37:48;6.40;99.90
16674;DHT22;8450;52.654;10.326;2023-11-21T07:40:14;6.40;99.90
16674;DHT22;8450;52.654;10.326;2023-11-21T07:42:41;6.40;99.90
16674;DHT22;8450;52.654;10.326;2023-11-21T07:45:10;6.30;99.90
16674;DHT22;8450;52.654;10.326;2023-11-21T07:47:35;6.30;99.90
16674;DHT22;8450;52.654;10.326;2023-11-21T07:50:03;6.30;99.90
16674;DHT22;8450;52.654;10.326;2023-11-21T07:52:28;6.30;99.90
16674;DHT22;8450;52.654;10.326;2023-11-21T07:54:54;6.30;99.90
16674;DHT22;8450;52.654;10.326;2023-11-21T07:57:20;6.30;99.90
16674;DHT22;8450;52.654;10.326;2023-11-21T07:59:45;6.30;99.90
16674;DHT22;8450;52.654;10.326;2023-11-21T08:02:11;6.30;99.90
16674;DHT22;8450;52.654;10.326;2023-11-21T08:04:37;6.30;99.90
16674;DHT22;8450;52.654;10.326;2023-11-21T08:07:03;6.40;99.90
16674;DHT22;8450;52.654;10.326;2023-11-21T08:09:29;6.40;99.90
16674;DHT22;8450;52.654;10.326;2023-11-21T08:11:55;6.40;99.90
16674;DHT22;8450;52.654;10.326;2023-11-21T08:14:22;6.40;99.90
16674;DHT22;8450;52.654;10.326;2023-11-21T08:16:47;6.40;99.90
16674;DHT22;8450;52.654;10.326;2023-11-21T08:19:13;6.40;99.90
16674;DHT22;8450;52.654;10.326;2023-11-21T08:21:38;6.40;99.90
16674;DHT22;8450;52.654;10.326;2023-11-21T08:24:06;6.30;99.90
16674;DHT22;8450;52.654;10.326;2023-11-21T08:26:36;6.30;99.90
16674;DHT22;8450;52.654;10.326;2023-11-21T08:29:02;6.30;99.90
16674;DHT22;8450;52.654;10.326;2023-11-21T08:31:27;6.30;99.90
16674;DHT22;8450;52.654;10.326;2023-11-21T08:33:54;6.40;99.90
16674;DHT22;8450;52.654;10.326;2023-11-21T08:36:22;6.40;99.90
16674;DHT22;8450;52.654;10.326;2023-11-21T08:38:50;6.40;99.90
16674;DHT22;8450;52.654;10.326;2023-11-21T08:41:17;6.40;99.90
16674;DHT22;8450;52.654;10.326;2023-11-21T08:43:48;6.30;99.90
16674;DHT22;8450;52.654;10.326;2023-11-21T08:46:14;6.30;99.90
16674;DHT22;8450;52.654;10.326;2023-11-21T08:48:40;6.40;99.90
16674;DHT22;8450;52.654;10.326;2023-11-21T08:51:06;6.30;99.90
16674;DHT22;8450;52.654;10.326;2023-11-21T08:53:32;6.30;99.90
16674;DHT22;8450;52.654;10.326;2023-11-21T08:55:58;6.30;99.90
16674;DHT22;8450;52.654;10.326;2023-11-21T08:58:24;6.30;99.90
16674;DHT22;8450;52.654;10.326;2023-11-21T09:00:49;6.40;99.90
16674;DHT22;8450;52.654;10.326;2023-11-21T09:03:15;6.40;99.90
16674;DHT22;8450;52.654;10.326;2023-11-21T09:05:40;6.40;99.90
16674;DHT22;8450;52.654;10.326;2023-11-21T09:08:06;6.40;99.90
16674;DHT22;8450;52.654;10.326;2023-11-21T09:10:33;6.40;99.90
16674;DHT22;8450;52.654;10.326;2023-11-21T09:13:02;6.40;99.90
16674;DHT22;8450;52.654;10.326;2023-11-21T09:15:28;6.50;99.90
16674;DHT22;8450;52.654;10.326;2023-11-21T09:17:53;6.50;99.90
16674;DHT22;8450;52.654;10.326;2023-11-21T09:20:19;6.50;99.90
16674;DHT22;8450;52.654;10.326;2023-11-21T09:22:48;6.40;99.90
16674;DHT22;8450;52.654;10.326;2023-11-21T09:25:14;6.40;99.90
16674;DHT22;8450;52.654;10.326;2023-11-21T09:27:40;6.50;99.90
16674;DHT22;8450;52.654;10.326;2023-11-21T09:30:07;6.50;99.90
16674;DHT22;8450;52.654;10.326;2023-11-21T09:32:37;6.50;99.90
16674;DHT22;8450;52.654;10.326;2023-11-21T09:35:04;6.40;99.90
16674;DHT22;8450;52.654;10.326;2023-11-21T09:37:31;6.50;99.90
16674;DHT22;8450;52.654;10.326;2023-11-21T09:39:57;6.50;99.90
16674;DHT22;8450;52.654;10.326;2023-11-21T09:42:35;6.50;99.90
16674;DHT22;8450;52.654;10.326;2023-11-21T09:47:38;6.60;99.90
16674;DHT22;8450;52.654;10.326;2023-11-21T09:50:05;6.60;99.90
16674;DHT22;8450;52.654;10.326;2023-11-21T09:52:49;6.60;99.90
16674;DHT22;8450;52.654;10.326;2023-11-21T09:55:18;6.50;99.90
16674;DHT22;8450;52.654;10.326;2023-11-21T09:57:47;6.60;99.90
16674;DHT22;8450;52.654;10.326;2023-11-21T10:00:14;6.60;99.90
16674;DHT22;8450;52.654;10.326;2023-11-21T10:02:43;6.60;99.90
16674;DHT22;8450;52.654;10.326;2023-11-21T10:05:09;6.60;99.90
16674;DHT22;8450;52.654;10.326;2023-11-21T10:07:39;6.60;99.90
16674;DHT22;8450;52.654;10.326;2023-11-21T10:10:07;6.70;99.90
16674;DHT22;8450;52.654;10.326;2023-11-21T10:12:35;6.70;99.90
16674;DHT22;8450;52.654;10.326;2023-11-21T10:15:03;6.80;99.90
16674;DHT22;8450;52.654;10.326;2023-11-21T10:17:32;6.80;99.90
16674;DHT22;8450;52.654;10.326;2023-11-21T10:20:11;6.80;99.90
16674;DHT22;8450;52.654;10.326;2023-11-21T10:22:40;6.80;99.90
16674;DHT22;8450;52.654;10.326;2023-11-21T10:25:10;6.90;99.90
16674;DHT22;8450;52.654;10.326;2023-11-21T10:27:37;7.00;99.90
16674;DHT22;8450;52.654;10.326;2023-11-21T10:30:05;7.00;99.90
16674;DHT22;8450;52.654;10.326;2023-11-21T10:32:32;7.00;99.90
16674;DHT22;8450;52.654;10.326;2023-11-21T10:34:58;7.10;99.90
16674;DHT22;8450;52.654;10.326;2023-11-21T10:37:25;7.10;99.90
16674;DHT22;8450;52.654;10.326;2023-11-21T10:39:59;7.10;99.90
16674;DHT22;8450;52.654;10.326;2023-11-21T10:42:25;7.20;99.90
16674;DHT22;8450;52.654;10.326;2023-11-21T10:44:53;7.20;99.90
16674;DHT22;8450;52.654;10.326;2023-11-21T10:47:19;7.20;99.90
16674;DHT22;8450;52.654;10.326;2023-11-21T10:49:48;7.20;99.90
16674;DHT22;8450;52.654;10.326;2023-11-21T10:52:14;7.30;99.90
16674;DHT22;8450;52.654;10.326;2023-11-21T10:54:43;7.30;99.90
16674;DHT22;8450;52.654;10.326;2023-11-21T10:57:10;7.30;99.90
16674;DHT22;8450;52.654;10.326;2023-11-21T10:59:36;7.30;99.90
16674;DHT22;8450;52.654;10.326;2023-11-21T11:02:10;7.30;99.90
16674;DHT22;8450;52.654;10.326;2023-11-21T11:04:39;7.40;99.90
16674;DHT22;8450;52.654;10.326;2023-11-21T11:07:07;7.40;99.90
16674;DHT22;8450;52.654;10.326;2023-11-21T11:09:35;7.40;99.90
16674;DHT22;8450;52.654;10.326;2023-11-21T11:12:04;7.30;99.90
16674;DHT22;8450;52.654;10.326;2023-11-21T11:14:30;7.30;99.90
16674;DHT22;8450;52.654;10.326;2023-11-21T11:16:58;7.30;99.90
16674;DHT22;8450;52.654;10.326;2023-11-21T11:19:25;7.30;99.90
16674;DHT22;8450;52.654;10.326;2023-11-21T11:25:25;7.40;99.90
16674;DHT22;8450;52.654;10.326;2023-11-21T11:28:07;7.30;99.90
16674;DHT22;8450;52.654;10.326;2023-11-21T11:33:55;7.30;99.90
16674;DHT22;8450;52.654;10.326;2023-11-21T11:36:34;7.20;99.90
16674;DHT22;8450;52.654;10.326;2023-11-21T11:39:01;7.20;99.90
16674;DHT22;8450;52.654;10.326;2023-11-21T11:41:31;7.20;99.90
16674;DHT22;8450;52.654;10.326;2023-11-21T11:44:03;7.20;99.90
16674;DHT22;8450;52.654;10.326;2023-11-21T11:46:45;7.10;99.90
16674;DHT22;8450;52.654;10.326;2023-11-21T11:49:24;7.10;99.90
16674;DHT22;8450;52.654;10.326;2023-11-21T11:54:55;7.20;99.90
16674;DHT22;8450;52.654;10.326;2023-11-21T11:57:24;7.20;99.90
16674;DHT22;8450;52.654;10.326;2023-11-21T12:02:47;7.10;99.90
16674;DHT22;8450;52.654;10.326;2023-11-21T12:05:23;7.00;99.90
16674;DHT22;8450;52.654;10.326;2023-11-21T12:07:53;7.10;99.90
16674;DHT22;8450;52.654;10.326;2023-11-21T12:10:21;7.10;99.90
16674;DHT22;8450;52.654;10.326;2023-11-21T12:12:56;7.10;99.90
16674;DHT22;8450;52.654;10.326;2023-11-21T12:15:22;7.00;99.90
16674;DHT22;8450;52.654;10.326;2023-11-21T12:17:49;7.00;99.90
16674;DHT22;8450;52.654;10.326;2023-11-21T12:20:18;7.00;99.90
16674;DHT22;8450;52.654;10.326;2023-11-21T12:22:51;6.90;99.90
16674;DHT22;8450;52.654;10.326;2023-11-21T12:25:21;6.90;99.90
16674;DHT22;8450;52.654;10.326;2023-11-21T12:27:52;6.90;99.90
16674;DHT22;8450;52.654;10.326;2023-11-21T12:30:20;6.90;99.90
16674;DHT22;8450;52.654;10.326;2023-11-21T12:32:51;7.00;99.90
16674;DHT22;8450;52.654;10.326;2023-11-21T12:35:18;7.00;99.90
16674;DHT22;8450;52.654;10.326;2023-11-21T12:37:47;7.10;99.90
16674;DHT22;8450;52.654;10.326;2023-11-21T12:40:15;7.00;99.90
16674;DHT22;8450;52.654;10.326;2023-11-21T12:43:07;7.10;99.90
16674;DHT22;8450;52.654;10.326;2023-11-21T12:45:33;7.10;99.90
16674;DHT22;8450;52.654;10.326;2023-11-21T12:48:03;7.00;99.90
16674;DHT22;8450;52.654;10.326;2023-11-21T12:50:33;7.00;99.90
16674;DHT22;8450;52.654;10.326;2023-11-21T12:53:01;7.00;99.90
16674;DHT22;8450;52.654;10.326;2023-11-21T12:55:30;7.00;99.90
16674;DHT22;8450;52.654;10.326;2023-11-21T12:57:56;7.10;99.90
16674;DHT22;8450;52.654;10.326;2023-11-21T13:00:32;7.00;99.90
16674;DHT22;8450;52.654;10.326;2023-11-21T13:02:59;6.90;99.90
16674;DHT22;8450;52.654;10.326;2023-11-21T13:05:26;7.00;99.90
16674;DHT22;8450;52.654;10.326;2023-11-21T13:07:53;6.90;99.90
16674;DHT22;8450;52.654;10.326;2023-11-21T13:10:22;6.90;99.90
16674;DHT22;8450;52.654;10.326;2023-11-21T13:12:52;7.00;99.90
16674;DHT22;8450;52.654;10.326;2023-11-21T13:15:18;6.90;99.90
16674;DHT22;8450;52.654;10.326;2023-11-21T13:17:46;6.90;99.90
16674;DHT22;8450;52.654;10.326;2023-11-21T13:20:13;6.80;99.90
16674;DHT22;8450;52.654;10.326;2023-11-21T13:23:07;6.90;99.90
16674;DHT22;8450;52.654;10.326;2023-11-21T13:25:32;6.80;99.90
16674;DHT22;8450;52.654;10.326;2023-11-21T13:27:59;6.80;99.90
16674;DHT22;8450;52.654;10.326;2023-11-21T13:30:26;6.80;99.90
16674;DHT22;8450;52.654;10.326;2023-11-21T13:32:55;6.80;99.90
16674;DHT22;8450;52.654;10.326;2023-11-21T13:35:27;6.80;99.90
16674;DHT22;8450;52.654;10.326;2023-11-21T13:38:12;6.80;99.90
16674;DHT22;8450;52.654;10.326;2023-11-21T13:40:40;6.80;99.90
16674;DHT22;8450;52.654;10.326;2023-11-21T13:43:13;6.80;99.90
16674;DHT22;8450;52.654;10.326;2023-11-21T13:45:39;6.70;99.90
16674;DHT22;8450;52.654;10.326;2023-11-21T13:48:06;6.70;99.90
16674;DHT22;8450;52.654;10.326;2023-11-21T13:50:45;6.70;99.90
16674;DHT22;8450;52.654;10.326;2023-11-21T13:53:27;6.70;99.90
16674;DHT22;8450;52.654;10.326;2023-11-21T13:55:54;6.70;99.90
16674;DHT22;8450;52.654;10.326;2023-11-21T13:58:23;6.60;99.90
16674;DHT22;8450;52.654;10.326;2023-11-21T14:00:58;6.70;99.90
16674;DHT22;8450;52.654;10.326;2023-11-21T14:03:24;6.60;99.90
16674;DHT22;8450;52.654;10.326;2023-11-21T14:05:58;6.60;99.90
16674;DHT22;8450;52.654;10.326;2023-11-21T14:08:26;6.50;99.90
16674;DHT22;8450;52.654;10.326;2023-11-21T14:10:57;6.60;99.90
16674;DHT22;8450;52.654;10.326;2023-11-21T14:13:25;6.50;99.90
16674;DHT22;8450;52.654;10.326;2023-11-21T14:15:51;6.50;99.90
16674;DHT22;8450;52.654;10.326;2023-11-21T14:18:23;6.50;99.90
16674;DHT22;8450;52.654;10.326;2023-11-21T14:20:56;6.50;99.90
16674;DHT22;8450;52.654;10.326;2023-11-21T14:23:21;6.50;99.90
16674;DHT22;8450;52.654;10.326;2023-11-21T14:25:49;6.50;99.90
16674;DHT22;8450;52.654;10.326;2023-11-21T14:28:15;6.50;99.90
16674;DHT22;8450;52.654;10.326;2023-11-21T14:30:41;6.50;99.90
16674;DHT22;8450;52.654;10.326;2023-11-21T14:33:08;6.50;99.90
16674;DHT22;8450;52.654;10.326;2023-11-21T14:35:35;6.50;99.90
16674;DHT22;8450;52.654;10.326;2023-11-21T14:38:01;6.50;99.90
16674;DHT22;8450;52.654;10.326;2023-11-21T14:40:28;6.50;99.90
16674;DHT22;8450;52.654;10.326;2023-11-21T14:42:59;6.40;99.90
16674;DHT22;8450;52.654;10.326;2023-11-21T14:45:25;6.40;99.90
16674;DHT22;8450;52.654;10.326;2023-11-21T14:47:52;6.40;99.90
16674;DHT22;8450;52.654;10.326;2023-11-21T14:50:36;6.40;99.90
16674;DHT22;8450;52.654;10.326;2023-11-21T14:53:11;6.40;99.90
16674;DHT22;8450;52.654;10.326;2023-11-21T14:55:39;6.30;99.90
16674;DHT22;8450;52.654;10.326;2023-11-21T14:58:05;6.30;99.90
16674;DHT22;8450;52.654;10.326;2023-11-21T15:00:30;6.30;99.90
16674;DHT22;8450;52.654;10.326;2023-11-21T15:03:16;6.20;99.90
16674;DHT22;8450;52.654;10.326;2023-11-21T15:06:02;6.20;99.90
16674;DHT22;8450;52.654;10.326;2023-11-21T15:08:47;6.10;99.90
16674;DHT22;8450;52.654;10.326;2023-11-21T15:11:13;6.20;99.90
16674;DHT22;8450;52.654;10.326;2023-11-21T15:13:41;6.20;99.90
16674;DHT22;8450;52.654;10.326;2023-11-21T15:16:08;6.10;99.90
16674;DHT22;8450;52.654;10.326;2023-11-21T15:18:37;6.10;99.90
16674;DHT22;8450;52.654;10.326;2023-11-21T15:21:03;6.00;99.90
16674;DHT22;8450;52.654;10.326;2023-11-21T15:23:29;6.00;99.90
16674;DHT22;8450;52.654;10.326;2023-11-21T15:25:56;6.00;99.90
16674;DHT22;8450;52.654;10.326;2023-11-21T15:28:23;5.90;99.90
16674;DHT22;8450;52.654;10.326;2023-11-21T15:30:50;5.90;99.90
16674;DHT22;8450;52.654;10.326;2023-11-21T15:33:17;5.90;99.90
16674;DHT22;8450;52.654;10.326;2023-11-21T15:35:43;5.90;99.90
16674;DHT22;8450;52.654;10.326;2023-11-21T15:38:08;5.90;99.90
16674;DHT22;8450;52.654;10.326;2023-11-21T15:40:34;5.90;99.90
16674;DHT22;8450;52.654;10.326;2023-11-21T15:43:00;5.90;99.90
16674;DHT22;8450;52.654;10.326;2023-11-21T15:45:28;5.90;99.90
16674;DHT22;8450;52.654;10.326;2023-11-21T15:47:54;5.90;99.90
16674;DHT22;8450;52.654;10.326;2023-11-21T15:50:21;5.90;99.90
16674;DHT22;8450;52.654;10.326;2023-11-21T15:52:47;5.80;99.90
16674;DHT22;8450;52.654;10.326;2023-11-21T15:55:13;5.80;99.90
16674;DHT22;8450;52.654;10.326;2023-11-21T15:57:38;5.80;99.90
16674;DHT22;8450;52.654;10.326;2023-11-21T16:00:04;5.80;99.90
16674;DHT22;8450;52.654;10.326;2023-11-21T16:02:36;5.80;99.90